createdAt,value
2023-03-13T00:00:58.801Z,25.27
2023-03-13T00:04:58.847Z,25.26
2023-03-13T00:08:58.764Z,25.21
2023-03-13T00:12:58.811Z,25.22
2023-03-13T00:16:58.763Z,25.16
2023-03-13T00:20:58.792Z,25.22
2023-03-13T00:24:58.834Z,25.26
2023-03-13T00:28:58.913Z,25.26
2023-03-13T00:32:59.004Z,25.19
2023-03-13T00:36:59.014Z,25.21
2023-03-13T00:40:59.049Z,25.23
2023-03-13T00:44:59.167Z,25.25
2023-03-13T00:48:59.202Z,25.20
2023-03-13T00:52:59.256Z,25.26
2023-03-13T00:56:59.304Z,25.20
2023-03-13T01:00:59.441Z,25.20
2023-03-13T01:05:00.188Z,25.23
2023-03-13T01:08:59.497Z,25.22
2023-03-13T01:12:59.587Z,25.27
2023-03-13T01:16:59.661Z,25.27
2023-03-13T01:20:59.745Z,25.25
2023-03-13T01:24:59.890Z,25.20
2023-03-13T01:29:00.050Z,25.23
2023-03-13T01:33:00.186Z,25.20
2023-03-13T01:37:00.310Z,25.17
2023-03-13T01:41:00.392Z,25.17
2023-03-13T01:45:00.551Z,25.22
2023-03-13T01:49:01.267Z,25.22
2023-03-13T01:53:00.875Z,25.22
2023-03-13T01:57:00.997Z,25.22
2023-03-13T02:01:01.092Z,25.24
2023-03-13T02:05:01.206Z,25.22
2023-03-13T02:09:01.330Z,25.20
2023-03-13T02:13:01.397Z,25.25
2023-03-13T02:17:01.499Z,25.24
2023-03-13T02:21:01.947Z,25.27
2023-03-13T02:25:01.827Z,25.27
2023-03-13T02:29:01.922Z,25.25
2023-03-13T02:33:02.030Z,25.20
2023-03-13T02:37:02.113Z,25.25
2023-03-13T02:41:02.241Z,25.24
2023-03-13T02:45:02.400Z,25.25
2023-03-13T02:49:02.476Z,25.25
2023-03-13T02:53:02.593Z,25.22
2023-03-13T02:57:02.730Z,25.24
2023-03-13T03:01:02.801Z,25.28
2023-03-13T03:05:02.895Z,25.21
2023-03-13T03:09:02.988Z,25.25
2023-03-13T03:13:03.140Z,25.21
2023-03-13T03:17:03.279Z,25.25
2023-03-13T03:21:03.411Z,25.24
2023-03-13T03:25:03.628Z,25.24
2023-03-13T03:29:03.722Z,25.27
2023-03-13T03:33:03.936Z,25.28
2023-03-13T03:37:04.022Z,25.28
2023-03-13T03:41:04.201Z,25.25
2023-03-13T03:45:04.375Z,25.22
2023-03-13T03:49:04.469Z,25.25
2023-03-13T03:53:04.655Z,25.25
2023-03-13T03:57:04.772Z,25.21
2023-03-13T04:01:04.964Z,25.21
2023-03-13T04:05:05.103Z,25.28
2023-03-13T04:09:05.190Z,25.26
2023-03-13T04:13:05.302Z,25.28
2023-03-13T04:17:05.531Z,25.28
2023-03-13T04:21:05.597Z,25.31
2023-03-13T04:25:05.743Z,25.26
2023-03-13T04:29:05.871Z,25.25
2023-03-13T04:33:06.015Z,25.29
2023-03-13T04:37:06.128Z,25.27
2023-03-13T04:41:06.302Z,25.27
2023-03-13T04:45:06.492Z,25.25
2023-03-13T04:49:08.840Z,25.29
2023-03-13T04:53:06.793Z,25.32
2023-03-13T04:57:06.982Z,25.27
2023-03-13T05:01:07.167Z,25.27
2023-03-13T05:05:07.324Z,25.23
2023-03-13T05:09:07.526Z,25.14
2023-03-13T05:13:07.689Z,25.06
2023-03-13T05:17:07.964Z,25.06
2023-03-13T05:21:08.107Z,25.05
2023-03-13T05:25:08.354Z,25.06
2023-03-13T05:29:08.271Z,25.05
2023-03-13T05:33:08.257Z,25.03
2023-03-13T05:37:08.217Z,25.03
2023-03-13T05:41:08.153Z,25.07
2023-03-13T05:45:08.128Z,25.02
2023-03-13T05:49:08.082Z,25.06
2023-03-13T05:53:08.076Z,25.01
2023-03-13T05:57:08.016Z,25.00
2023-03-13T06:01:07.974Z,25.02
2023-03-13T06:05:08.085Z,25.00
2023-03-13T06:09:07.924Z,25.01
2023-03-13T06:13:19.461Z,25.00
2023-03-13T06:17:08.910Z,25.04
2023-03-13T06:21:07.820Z,25.03
2023-03-13T06:25:07.772Z,25.04
2023-03-13T06:29:07.808Z,25.00
2023-03-13T06:33:08.129Z,25.02
2023-03-13T06:37:08.039Z,25.49
2023-03-13T06:41:08.038Z,26.09
2023-03-13T06:45:08.022Z,26.60
2023-03-13T06:49:08.104Z,27.06
2023-03-13T06:53:08.070Z,27.49
2023-03-13T06:57:08.037Z,27.69
2023-03-13T07:01:08.113Z,27.87
2023-03-13T07:05:07.970Z,27.99
2023-03-13T07:09:07.971Z,28.08
2023-03-13T07:13:07.908Z,28.16
2023-03-13T07:17:07.923Z,28.20
2023-03-13T07:21:07.874Z,28.17
2023-03-13T07:25:07.775Z,28.24
2023-03-13T07:29:07.758Z,28.27
2023-03-13T07:33:07.784Z,28.23
2023-03-13T07:37:07.707Z,28.09
2023-03-13T07:41:07.635Z,27.70
2023-03-13T07:45:08.722Z,26.13
2023-03-13T07:49:07.587Z,26.99
2023-03-13T07:53:08.022Z,26.93
2023-03-13T07:57:07.710Z,26.94
2023-03-13T08:01:07.887Z,26.89
2023-03-13T08:05:07.809Z,26.94
2023-03-13T08:09:07.785Z,26.90
2023-03-13T08:13:07.747Z,26.87
2023-03-13T08:17:07.726Z,26.79
2023-03-13T08:21:07.645Z,26.69
2023-03-13T08:25:07.624Z,26.68
2023-03-13T08:29:07.614Z,26.58
2023-03-13T08:33:07.907Z,26.57
2023-03-13T08:37:07.496Z,26.06
2023-03-13T08:41:07.463Z,26.61
2023-03-13T08:45:07.477Z,26.82
2023-03-13T08:49:07.426Z,26.93
2023-03-13T08:53:07.426Z,27.07
2023-03-13T08:57:07.443Z,27.16
2023-03-13T09:01:07.308Z,27.15
2023-03-13T09:05:07.298Z,27.16
2023-03-13T09:09:07.459Z,26.92
2023-03-13T09:13:07.618Z,26.84
2023-03-13T09:17:07.783Z,26.70
2023-03-13T09:21:07.829Z,26.78
2023-03-13T09:25:07.743Z,26.87
2023-03-13T09:29:08.096Z,25.07
2023-03-13T09:33:07.678Z,24.74
2023-03-13T09:37:07.616Z,24.50
2023-03-13T09:41:08.086Z,24.68
2023-03-13T09:45:07.560Z,25.91
2023-03-13T09:49:07.523Z,26.09
2023-03-13T09:53:07.452Z,26.35
2023-03-13T09:57:07.450Z,26.37
2023-03-13T10:01:07.396Z,26.33
2023-03-13T10:05:07.377Z,26.58
2023-03-13T10:09:07.444Z,26.61
2023-03-13T10:13:07.488Z,26.44
2023-03-13T10:17:07.608Z,26.53
2023-03-13T10:21:07.812Z,26.51
2023-03-13T10:25:07.964Z,26.52
2023-03-13T10:29:08.608Z,26.40
2023-03-13T10:33:08.234Z,26.49
2023-03-13T10:37:08.512Z,26.61
2023-03-13T10:41:08.458Z,26.61
2023-03-13T10:45:08.530Z,26.57
2023-03-13T10:49:08.556Z,26.53
2023-03-13T10:53:08.587Z,26.54
2023-03-13T10:57:08.596Z,26.39
2023-03-13T11:01:08.632Z,26.20
2023-03-13T11:05:08.622Z,26.06
2023-03-13T11:09:08.672Z,25.96
2023-03-13T11:13:08.770Z,26.17
2023-03-13T11:17:08.743Z,26.15
2023-03-13T11:21:17.792Z,26.36
2023-03-13T11:25:09.683Z,25.62
2023-03-13T11:29:09.542Z,25.37
2023-03-13T11:33:08.658Z,25.38
2023-03-13T11:37:08.642Z,24.85
2023-03-13T11:41:08.813Z,24.82
2023-03-13T11:45:08.924Z,25.55
2023-03-13T11:49:09.167Z,25.90
2023-03-13T11:53:09.248Z,26.03
2023-03-13T11:57:09.181Z,26.09
2023-03-13T12:01:09.370Z,25.95
2023-03-13T12:05:09.258Z,25.98
2023-03-13T12:09:09.310Z,25.88
2023-03-13T12:13:09.331Z,25.70
2023-03-13T12:17:09.426Z,25.61
2023-03-13T12:21:09.448Z,23.95
2023-03-13T12:25:10.430Z,23.49
2023-03-13T12:29:09.578Z,23.21
2023-03-13T12:33:09.667Z,22.91
2023-03-13T12:37:09.767Z,22.50
2023-03-13T12:41:09.986Z,22.28
2023-03-13T12:45:09.922Z,22.18
2023-03-13T12:49:09.948Z,22.15
2023-03-13T12:53:09.854Z,22.01
2023-03-13T12:57:09.824Z,21.45
2023-03-13T13:01:09.781Z,21.41
2023-03-13T13:05:10.130Z,22.86
2023-03-13T13:09:09.676Z,22.60
2023-03-13T13:13:09.687Z,23.09
2023-03-13T13:17:09.724Z,23.40
2023-03-13T13:21:09.568Z,23.06
2023-03-13T13:25:09.648Z,22.79
2023-03-13T13:29:09.575Z,22.27
2023-03-13T13:33:10.385Z,21.91
2023-03-13T13:37:09.487Z,21.42
2023-03-13T13:41:09.452Z,20.95
2023-03-13T13:45:09.432Z,20.56
2023-03-13T13:49:09.413Z,21.41
2023-03-13T13:53:09.388Z,21.63
2023-03-13T13:57:09.427Z,20.83
2023-03-13T14:01:09.280Z,21.19
2023-03-13T14:05:09.383Z,21.51
2023-03-13T14:09:09.589Z,21.07
2023-03-13T14:13:09.788Z,21.26
2023-03-13T14:17:10.002Z,21.41
2023-03-13T14:21:10.292Z,21.50
2023-03-13T14:25:10.375Z,21.75
2023-03-13T14:29:10.453Z,21.78
2023-03-13T14:33:10.551Z,20.91
2023-03-13T14:37:18.036Z,20.72
2023-03-13T14:41:11.787Z,20.85
2023-03-13T14:45:10.734Z,20.96
2023-03-13T14:49:10.822Z,21.46
2023-03-13T14:53:10.937Z,21.55
2023-03-13T14:57:11.078Z,21.61
2023-03-13T15:01:11.346Z,21.55
2023-03-13T15:05:13.759Z,21.59
2023-03-13T15:09:11.385Z,21.55
2023-03-13T15:13:11.384Z,21.61
2023-03-13T15:17:11.334Z,21.68
2023-03-13T15:21:11.281Z,21.77
2023-03-13T15:25:11.295Z,21.89
2023-03-13T15:29:11.242Z,21.97
2023-03-13T15:33:11.315Z,22.12
2023-03-13T15:37:11.174Z,22.11
2023-03-13T15:41:11.175Z,22.20
2023-03-13T15:45:11.068Z,22.25
2023-03-13T15:49:11.291Z,22.35
2023-03-13T15:53:11.233Z,22.43
2023-03-13T15:57:11.214Z,22.43
2023-03-13T16:01:11.204Z,22.57
2023-03-13T16:05:11.105Z,22.60
2023-03-13T16:09:11.080Z,22.67
2023-03-13T16:13:11.028Z,22.70
2023-03-13T16:17:11.000Z,22.77
2023-03-13T16:21:10.991Z,22.83
2023-03-13T16:25:10.942Z,22.86
2023-03-13T16:29:10.951Z,22.90
2023-03-13T16:33:11.281Z,22.98
2023-03-13T16:37:10.919Z,23.03
2023-03-13T16:41:11.076Z,23.06
2023-03-13T16:45:11.130Z,23.06
2023-03-13T16:49:11.115Z,23.14
2023-03-13T16:53:11.103Z,23.16
2023-03-13T16:57:11.125Z,23.17
2023-03-13T17:01:11.130Z,23.23
2023-03-13T17:05:11.203Z,23.37
2023-03-13T17:09:11.185Z,23.36
2023-03-13T17:13:11.251Z,23.41
2023-03-13T17:17:11.291Z,23.43
2023-03-13T17:21:12.362Z,23.49
2023-03-13T17:25:11.465Z,23.46
2023-03-13T17:29:11.542Z,23.54
2023-03-13T17:33:11.632Z,23.65
2023-03-13T17:37:11.705Z,23.57
2023-03-13T17:41:11.809Z,23.52
2023-03-13T17:45:11.871Z,23.63
2023-03-13T17:49:11.998Z,23.62
2023-03-13T17:53:12.083Z,23.60
2023-03-13T17:57:12.139Z,23.65
2023-03-13T18:01:12.257Z,23.73
2023-03-13T18:05:12.321Z,23.71
2023-03-13T18:09:12.435Z,23.75
2023-03-13T18:13:12.482Z,23.75
2023-03-13T18:17:12.605Z,23.72
2023-03-13T18:21:12.763Z,23.81
2023-03-13T18:25:12.797Z,23.86
2023-03-13T18:29:12.993Z,23.83
2023-03-13T18:33:13.097Z,23.87
2023-03-13T18:37:13.170Z,23.84
2023-03-13T18:41:13.291Z,23.88
2023-03-13T18:45:13.456Z,23.88
2023-03-13T18:49:13.574Z,23.85
2023-03-13T18:53:13.774Z,23.90
2023-03-13T18:57:13.958Z,23.92
2023-03-13T19:01:14.136Z,23.98
2023-03-13T19:05:14.265Z,23.97
2023-03-13T19:09:41.023Z,23.96
2023-03-13T19:13:15.468Z,23.99
2023-03-13T19:17:14.393Z,24.03
2023-03-13T19:21:14.530Z,24.00
2023-03-13T19:25:14.844Z,24.00
2023-03-13T19:29:14.951Z,24.06
2023-03-13T19:33:15.103Z,24.06
2023-03-13T19:37:15.108Z,24.10
2023-03-13T19:41:15.054Z,24.09
2023-03-13T19:45:15.062Z,24.11
2023-03-13T19:49:14.984Z,24.12
2023-03-13T19:53:15.004Z,24.13
2023-03-13T19:57:14.924Z,24.13
2023-03-13T20:01:17.515Z,24.15
2023-03-13T20:05:14.808Z,24.15
2023-03-13T20:09:14.862Z,24.23
2023-03-13T20:13:14.830Z,24.33
2023-03-13T20:17:14.766Z,24.26
2023-03-13T20:21:14.704Z,24.32
2023-03-13T20:25:14.717Z,24.32
2023-03-13T20:29:14.678Z,24.34
2023-03-13T20:33:14.645Z,24.37
2023-03-13T20:37:14.586Z,24.39
2023-03-13T20:41:14.519Z,24.43
2023-03-13T20:45:14.491Z,24.47
2023-03-13T20:49:14.467Z,24.46
2023-03-13T20:53:14.400Z,24.46
2023-03-13T20:57:14.374Z,24.44
2023-03-13T21:01:14.386Z,24.44
2023-03-13T21:05:14.331Z,24.44
2023-03-13T21:09:14.253Z,24.48
2023-03-13T21:13:14.216Z,24.49
2023-03-13T21:17:14.198Z,24.46
2023-03-13T21:21:14.335Z,24.49
2023-03-13T21:25:14.502Z,24.54
2023-03-13T21:29:14.621Z,24.51
2023-03-13T21:33:14.796Z,24.49
2023-03-13T21:37:14.923Z,24.54
2023-03-13T21:41:14.967Z,24.57
2023-03-13T21:45:15.052Z,24.52
2023-03-13T21:49:15.192Z,24.52
2023-03-13T21:53:15.310Z,24.58
2023-03-13T21:57:15.428Z,24.61
2023-03-13T22:01:15.471Z,24.52
2023-03-13T22:05:15.460Z,24.55
2023-03-13T22:09:15.456Z,24.59
2023-03-13T22:13:15.433Z,24.55
2023-03-13T22:17:15.477Z,24.59
2023-03-13T22:21:15.570Z,24.59
2023-03-13T22:25:15.592Z,24.60
2023-03-13T22:29:15.547Z,24.62
2023-03-13T22:33:15.570Z,24.62
2023-03-13T22:37:15.572Z,24.67
2023-03-13T22:41:15.561Z,24.63
2023-03-13T22:45:15.590Z,24.65
2023-03-13T22:49:15.603Z,24.66
2023-03-13T22:53:15.723Z,24.67
2023-03-13T22:57:15.641Z,24.65
2023-03-13T23:01:18.007Z,24.68
2023-03-13T23:05:15.580Z,24.66
2023-03-13T23:09:15.599Z,24.67
2023-03-13T23:13:15.555Z,24.67
2023-03-13T23:17:15.501Z,24.70
2023-03-13T23:21:15.466Z,24.72
2023-03-13T23:25:15.467Z,24.71
2023-03-13T23:29:15.370Z,24.71
2023-03-13T23:33:15.392Z,24.71
2023-03-13T23:37:15.306Z,24.74
2023-03-13T23:41:15.301Z,24.71
2023-03-13T23:45:15.244Z,24.73
2023-03-13T23:49:15.225Z,24.75
2023-03-13T23:53:15.193Z,24.78
2023-03-13T23:57:15.155Z,24.73
